sensor_id;sensor_type;location;lat;lon;timestamp;P1;durP1;ratioP1;P2;durP2;ratioP2
70332;SDS011;57747;43.548;-5.704;2023-05-07T00:01:49;6.50;;;2.53;;
70332;SDS011;57747;43.548;-5.704;2023-05-07T00:04:18;13.15;;;3.15;;
70332;SDS011;57747;43.548;-5.704;2023-05-07T00:06:43;14.73;;;2.70;;
70332;SDS011;57747;43.548;-5.704;2023-05-07T00:09:08;15.00;;;2.67;;
70332;SDS011;57747;43.548;-5.704;2023-05-07T00:11:34;13.48;;;2.88;;
70332;SDS011;57747;43.548;-5.704;2023-05-07T00:14:00;7.78;;;2.65;;
70332;SDS011;57747;43.548;-5.704;2023-05-07T00:16:25;12.82;;;3.35;;
70332;SDS011;57747;43.548;-5.704;2023-05-07T00:18:52;15.77;;;3.30;;
70332;SDS011;57747;43.548;-5.704;2023-05-07T00:21:17;20.98;;;3.50;;
70332;SDS011;57747;43.548;-5.704;2023-05-07T00:23:43;23.20;;;3.92;;
70332;SDS011;57747;43.548;-5.704;2023-05-07T00:26:08;12.98;;;3.65;;
70332;SDS011;57747;43.548;-5.704;2023-05-07T00:28:33;14.93;;;3.83;;
70332;SDS011;57747;43.548;-5.704;2023-05-07T00:30:59;13.82;;;3.25;;
70332;SDS011;57747;43.548;-5.704;2023-05-07T00:33:24;20.77;;;3.92;;
70332;SDS011;57747;43.548;-5.704;2023-05-07T00:35:51;19.48;;;4.10;;
70332;SDS011;57747;43.548;-5.704;2023-05-07T00:38:17;15.35;;;3.45;;
70332;SDS011;57747;43.548;-5.704;2023-05-07T00:40:42;13.50;;;3.28;;
70332;SDS011;57747;43.548;-5.704;2023-05-07T00:43:07;9.18;;;2.80;;
70332;SDS011;57747;43.548;-5.704;2023-05-07T00:45:33;15.20;;;3.53;;
70332;SDS011;57747;43.548;-5.704;2023-05-07T00:48:01;22.13;;;3.25;;
70332;SDS011;57747;43.548;-5.704;2023-05-07T00:50:27;14.82;;;3.55;;
70332;SDS011;57747;43.548;-5.704;2023-05-07T00:52:53;18.05;;;3.70;;
70332;SDS011;57747;43.548;-5.704;2023-05-07T00:55:21;23.33;;;4.03;;
70332;SDS011;57747;43.548;-5.704;2023-05-07T00:57:50;30.13;;;4.78;;
70332;SDS011;57747;43.548;-5.704;2023-05-07T01:02:47;23.98;;;4.30;;
70332;SDS011;57747;43.548;-5.704;2023-05-07T01:05:14;30.52;;;4.40;;
70332;SDS011;57747;43.548;-5.704;2023-05-07T01:07:40;16.92;;;4.93;;
70332;SDS011;57747;43.548;-5.704;2023-05-07T01:10:10;21.85;;;4.35;;
70332;SDS011;57747;43.548;-5.704;2023-05-07T01:12:38;19.48;;;4.53;;
70332;SDS011;57747;43.548;-5.704;2023-05-07T01:15:04;26.88;;;4.95;;
70332;SDS011;57747;43.548;-5.704;2023-05-07T01:17:33;23.77;;;4.30;;
70332;SDS011;57747;43.548;-5.704;2023-05-07T01:19:59;20.30;;;3.47;;
70332;SDS011;57747;43.548;-5.704;2023-05-07T01:22:31;22.98;;;3.88;;
70332;SDS011;57747;43.548;-5.704;2023-05-07T01:25:04;21.83;;;4.15;;
70332;SDS011;57747;43.548;-5.704;2023-05-07T01:27:30;18.98;;;3.97;;
70332;SDS011;57747;43.548;-5.704;2023-05-07T01:29:56;17.30;;;4.60;;
70332;SDS011;57747;43.548;-5.704;2023-05-07T01:32:28;16.50;;;4.30;;
70332;SDS011;57747;43.548;-5.704;2023-05-07T01:34:54;15.63;;;4.03;;
70332;SDS011;57747;43.548;-5.704;2023-05-07T01:37:20;22.92;;;4.15;;
70332;SDS011;57747;43.548;-5.704;2023-05-07T01:39:46;20.08;;;4.50;;
70332;SDS011;57747;43.548;-5.704;2023-05-07T01:42:12;33.92;;;4.63;;
70332;SDS011;57747;43.548;-5.704;2023-05-07T01:44:37;20.42;;;4.28;;
70332;SDS011;57747;43.548;-5.704;2023-05-07T01:47:03;19.83;;;4.97;;
70332;SDS011;57747;43.548;-5.704;2023-05-07T01:49:28;30.75;;;4.55;;
70332;SDS011;57747;43.548;-5.704;2023-05-07T01:51:55;20.98;;;4.40;;
70332;SDS011;57747;43.548;-5.704;2023-05-07T01:54:26;24.48;;;3.70;;
70332;SDS011;57747;43.548;-5.704;2023-05-07T01:56:56;13.88;;;3.58;;
70332;SDS011;57747;43.548;-5.704;2023-05-07T01:59:22;20.40;;;4.00;;
70332;SDS011;57747;43.548;-5.704;2023-05-07T02:01:47;16.98;;;4.68;;
70332;SDS011;57747;43.548;-5.704;2023-05-07T02:04:13;17.85;;;3.63;;
70332;SDS011;57747;43.548;-5.704;2023-05-07T02:06:38;22.45;;;4.03;;
70332;SDS011;57747;43.548;-5.704;2023-05-07T02:09:04;22.95;;;4.43;;
70332;SDS011;57747;43.548;-5.704;2023-05-07T02:11:29;24.25;;;4.53;;
70332;SDS011;57747;43.548;-5.704;2023-05-07T02:13:55;23.75;;;4.57;;
70332;SDS011;57747;43.548;-5.704;2023-05-07T02:16:20;19.30;;;4.07;;
70332;SDS011;57747;43.548;-5.704;2023-05-07T02:18:46;22.92;;;3.53;;
70332;SDS011;57747;43.548;-5.704;2023-05-07T02:21:12;18.30;;;4.78;;
70332;SDS011;57747;43.548;-5.704;2023-05-07T02:23:37;21.92;;;5.35;;
70332;SDS011;57747;43.548;-5.704;2023-05-07T02:26:03;25.15;;;4.80;;
70332;SDS011;57747;43.548;-5.704;2023-05-07T02:28:29;27.25;;;4.93;;
70332;SDS011;57747;43.548;-5.704;2023-05-07T02:30:54;17.08;;;4.00;;
70332;SDS011;57747;43.548;-5.704;2023-05-07T02:33:20;19.40;;;4.55;;
70332;SDS011;57747;43.548;-5.704;2023-05-07T02:35:45;27.52;;;5.15;;
70332;SDS011;57747;43.548;-5.704;2023-05-07T02:38:13;23.90;;;4.63;;
70332;SDS011;57747;43.548;-5.704;2023-05-07T02:40:39;26.70;;;4.28;;
70332;SDS011;57747;43.548;-5.704;2023-05-07T02:43:04;20.98;;;5.38;;
70332;SDS011;57747;43.548;-5.704;2023-05-07T02:45:31;25.63;;;4.63;;
70332;SDS011;57747;43.548;-5.704;2023-05-07T02:47:59;33.25;;;5.10;;
70332;SDS011;57747;43.548;-5.704;2023-05-07T02:50:24;25.33;;;4.72;;
70332;SDS011;57747;43.548;-5.704;2023-05-07T02:52:50;28.55;;;5.00;;
70332;SDS011;57747;43.548;-5.704;2023-05-07T02:55:15;24.73;;;5.15;;
70332;SDS011;57747;43.548;-5.704;2023-05-07T02:57:41;24.90;;;4.47;;
70332;SDS011;57747;43.548;-5.704;2023-05-07T03:02:50;14.07;;;4.45;;
70332;SDS011;57747;43.548;-5.704;2023-05-07T03:05:18;18.15;;;4.28;;
70332;SDS011;57747;43.548;-5.704;2023-05-07T03:07:44;22.05;;;4.22;;
70332;SDS011;57747;43.548;-5.704;2023-05-07T03:10:11;12.20;;;3.75;;
70332;SDS011;57747;43.548;-5.704;2023-05-07T03:12:36;10.98;;;4.32;;
70332;SDS011;57747;43.548;-5.704;2023-05-07T03:15:04;23.95;;;4.95;;
70332;SDS011;57747;43.548;-5.704;2023-05-07T03:17:33;19.27;;;4.78;;
70332;SDS011;57747;43.548;-5.704;2023-05-07T03:19:58;23.13;;;5.50;;
70332;SDS011;57747;43.548;-5.704;2023-05-07T03:22:24;22.27;;;4.15;;
70332;SDS011;57747;43.548;-5.704;2023-05-07T03:24:51;19.67;;;4.63;;
70332;SDS011;57747;43.548;-5.704;2023-05-07T03:27:19;14.57;;;3.95;;
70332;SDS011;57747;43.548;-5.704;2023-05-07T03:29:47;21.50;;;4.30;;
70332;SDS011;57747;43.548;-5.704;2023-05-07T03:32:15;16.27;;;4.05;;
70332;SDS011;57747;43.548;-5.704;2023-05-07T03:34:40;13.45;;;3.97;;
70332;SDS011;57747;43.548;-5.704;2023-05-07T03:37:08;18.08;;;3.78;;
70332;SDS011;57747;43.548;-5.704;2023-05-07T03:39:39;21.67;;;4.88;;
70332;SDS011;57747;43.548;-5.704;2023-05-07T03:42:04;23.45;;;4.78;;
70332;SDS011;57747;43.548;-5.704;2023-05-07T03:44:30;16.63;;;3.80;;
70332;SDS011;57747;43.548;-5.704;2023-05-07T03:46:58;20.85;;;4.65;;
70332;SDS011;57747;43.548;-5.704;2023-05-07T03:49:25;15.40;;;3.50;;
70332;SDS011;57747;43.548;-5.704;2023-05-07T03:51:54;24.98;;;4.43;;
70332;SDS011;57747;43.548;-5.704;2023-05-07T03:54:19;27.08;;;4.97;;
70332;SDS011;57747;43.548;-5.704;2023-05-07T03:56:45;19.58;;;3.80;;
70332;SDS011;57747;43.548;-5.704;2023-05-07T03:59:10;17.80;;;3.65;;
70332;SDS011;57747;43.548;-5.704;2023-05-07T04:01:35;25.90;;;4.32;;
70332;SDS011;57747;43.548;-5.704;2023-05-07T04:04:03;25.27;;;3.85;;
70332;SDS011;57747;43.548;-5.704;2023-05-07T04:06:31;18.85;;;5.00;;
70332;SDS011;57747;43.548;-5.704;2023-05-07T04:08:59;26.80;;;6.15;;
70332;SDS011;57747;43.548;-5.704;2023-05-07T04:11:24;20.55;;;4.50;;
70332;SDS011;57747;43.548;-5.704;2023-05-07T04:13:53;30.80;;;5.72;;
70332;SDS011;57747;43.548;-5.704;2023-05-07T04:16:18;21.80;;;5.50;;
70332;SDS011;57747;43.548;-5.704;2023-05-07T04:18:44;30.80;;;5.13;;
70332;SDS011;57747;43.548;-5.704;2023-05-07T04:21:16;25.60;;;4.65;;
70332;SDS011;57747;43.548;-5.704;2023-05-07T04:23:48;26.65;;;6.03;;
70332;SDS011;57747;43.548;-5.704;2023-05-07T04:26:16;20.88;;;4.50;;
70332;SDS011;57747;43.548;-5.704;2023-05-07T04:28:43;28.95;;;5.05;;
70332;SDS011;57747;43.548;-5.704;2023-05-07T04:31:08;26.00;;;4.97;;
70332;SDS011;57747;43.548;-5.704;2023-05-07T04:33:37;18.20;;;4.40;;
70332;SDS011;57747;43.548;-5.704;2023-05-07T04:36:03;24.88;;;4.93;;
70332;SDS011;57747;43.548;-5.704;2023-05-07T04:38:31;20.80;;;5.18;;
70332;SDS011;57747;43.548;-5.704;2023-05-07T04:40:58;22.92;;;5.13;;
70332;SDS011;57747;43.548;-5.704;2023-05-07T04:43:23;20.27;;;4.47;;
70332;SDS011;57747;43.548;-5.704;2023-05-07T04:45:52;19.20;;;4.88;;
70332;SDS011;57747;43.548;-5.704;2023-05-07T04:48:17;13.70;;;3.67;;
70332;SDS011;57747;43.548;-5.704;2023-05-07T04:50:46;19.98;;;4.00;;
70332;SDS011;57747;43.548;-5.704;2023-05-07T04:53:14;19.33;;;3.67;;
70332;SDS011;57747;43.548;-5.704;2023-05-07T04:55:42;21.92;;;3.92;;
70332;SDS011;57747;43.548;-5.704;2023-05-07T04:58:07;19.27;;;4.60;;
70332;SDS011;57747;43.548;-5.704;2023-05-07T05:00:33;12.25;;;4.63;;
70332;SDS011;57747;43.548;-5.704;2023-05-07T05:03:00;20.55;;;3.50;;
70332;SDS011;57747;43.548;-5.704;2023-05-07T05:05:26;19.45;;;3.72;;
70332;SDS011;57747;43.548;-5.704;2023-05-07T05:07:51;18.67;;;3.40;;
70332;SDS011;57747;43.548;-5.704;2023-05-07T05:10:21;18.00;;;3.22;;
70332;SDS011;57747;43.548;-5.704;2023-05-07T05:12:46;19.60;;;3.03;;
70332;SDS011;57747;43.548;-5.704;2023-05-07T05:15:11;17.98;;;3.55;;
70332;SDS011;57747;43.548;-5.704;2023-05-07T05:17:40;16.20;;;3.70;;
70332;SDS011;57747;43.548;-5.704;2023-05-07T05:20:09;17.73;;;3.55;;
70332;SDS011;57747;43.548;-5.704;2023-05-07T05:22:35;15.23;;;3.67;;
70332;SDS011;57747;43.548;-5.704;2023-05-07T05:25:01;15.85;;;3.17;;
70332;SDS011;57747;43.548;-5.704;2023-05-07T05:27:29;15.85;;;4.43;;
70332;SDS011;57747;43.548;-5.704;2023-05-07T05:29:55;20.42;;;4.40;;
70332;SDS011;57747;43.548;-5.704;2023-05-07T05:32:20;23.00;;;3.80;;
70332;SDS011;57747;43.548;-5.704;2023-05-07T05:34:45;16.92;;;3.35;;
70332;SDS011;57747;43.548;-5.704;2023-05-07T05:37:13;25.50;;;4.50;;
70332;SDS011;57747;43.548;-5.704;2023-05-07T05:39:41;19.35;;;3.70;;
70332;SDS011;57747;43.548;-5.704;2023-05-07T05:42:10;14.05;;;3.08;;
70332;SDS011;57747;43.548;-5.704;2023-05-07T05:44:35;13.93;;;3.35;;
70332;SDS011;57747;43.548;-5.704;2023-05-07T05:47:01;17.58;;;3.88;;
70332;SDS011;57747;43.548;-5.704;2023-05-07T05:49:26;20.58;;;4.07;;
70332;SDS011;57747;43.548;-5.704;2023-05-07T05:51:52;15.57;;;3.65;;
70332;SDS011;57747;43.548;-5.704;2023-05-07T05:54:17;11.60;;;3.33;;
70332;SDS011;57747;43.548;-5.704;2023-05-07T05:56:45;14.25;;;3.53;;
70332;SDS011;57747;43.548;-5.704;2023-05-07T05:59:10;23.67;;;3.00;;
70332;SDS011;57747;43.548;-5.704;2023-05-07T06:01:38;15.77;;;3.20;;
70332;SDS011;57747;43.548;-5.704;2023-05-07T06:04:03;17.98;;;3.30;;
70332;SDS011;57747;43.548;-5.704;2023-05-07T06:06:29;16.42;;;4.13;;
70332;SDS011;57747;43.548;-5.704;2023-05-07T06:08:54;21.65;;;3.70;;
70332;SDS011;57747;43.548;-5.704;2023-05-07T06:11:19;23.60;;;3.78;;
70332;SDS011;57747;43.548;-5.704;2023-05-07T06:13:47;21.83;;;3.85;;
70332;SDS011;57747;43.548;-5.704;2023-05-07T06:16:13;24.20;;;4.40;;
70332;SDS011;57747;43.548;-5.704;2023-05-07T06:18:39;20.52;;;4.18;;
70332;SDS011;57747;43.548;-5.704;2023-05-07T06:21:04;20.45;;;4.68;;
70332;SDS011;57747;43.548;-5.704;2023-05-07T06:23:30;21.48;;;4.10;;
70332;SDS011;57747;43.548;-5.704;2023-05-07T06:25:55;20.15;;;4.95;;
70332;SDS011;57747;43.548;-5.704;2023-05-07T06:28:20;20.95;;;3.65;;
70332;SDS011;57747;43.548;-5.704;2023-05-07T06:30:46;16.95;;;3.45;;
70332;SDS011;57747;43.548;-5.704;2023-05-07T06:33:13;22.33;;;4.15;;
70332;SDS011;57747;43.548;-5.704;2023-05-07T06:35:39;17.88;;;3.03;;
70332;SDS011;57747;43.548;-5.704;2023-05-07T06:38:04;17.83;;;3.92;;
70332;SDS011;57747;43.548;-5.704;2023-05-07T06:40:30;18.63;;;3.45;;
70332;SDS011;57747;43.548;-5.704;2023-05-07T06:42:55;21.17;;;3.92;;
70332;SDS011;57747;43.548;-5.704;2023-05-07T06:45:21;29.13;;;5.28;;
70332;SDS011;57747;43.548;-5.704;2023-05-07T06:47:46;14.60;;;3.72;;
70332;SDS011;57747;43.548;-5.704;2023-05-07T06:50:11;20.00;;;3.85;;
70332;SDS011;57747;43.548;-5.704;2023-05-07T06:52:37;16.27;;;4.00;;
70332;SDS011;57747;43.548;-5.704;2023-05-07T06:55:02;18.67;;;4.22;;
70332;SDS011;57747;43.548;-5.704;2023-05-07T06:57:28;14.50;;;4.53;;
70332;SDS011;57747;43.548;-5.704;2023-05-07T07:03:18;22.40;;;5.35;;
70332;SDS011;57747;43.548;-5.704;2023-05-07T07:05:45;25.10;;;4.15;;
70332;SDS011;57747;43.548;-5.704;2023-05-07T07:08:22;26.58;;;7.45;;
70332;SDS011;57747;43.548;-5.704;2023-05-07T07:10:58;23.27;;;6.57;;
70332;SDS011;57747;43.548;-5.704;2023-05-07T07:13:23;29.83;;;7.20;;
70332;SDS011;57747;43.548;-5.704;2023-05-07T07:15:48;29.42;;;4.85;;
70332;SDS011;57747;43.548;-5.704;2023-05-07T07:18:16;24.33;;;4.88;;
70332;SDS011;57747;43.548;-5.704;2023-05-07T07:20:49;42.35;;;7.15;;
70332;SDS011;57747;43.548;-5.704;2023-05-07T07:23:18;23.27;;;5.00;;
70332;SDS011;57747;43.548;-5.704;2023-05-07T07:25:44;28.90;;;6.22;;
70332;SDS011;57747;43.548;-5.704;2023-05-07T07:28:09;35.60;;;5.20;;
70332;SDS011;57747;43.548;-5.704;2023-05-07T07:30:36;26.42;;;5.13;;
70332;SDS011;57747;43.548;-5.704;2023-05-07T07:33:01;26.85;;;4.72;;
70332;SDS011;57747;43.548;-5.704;2023-05-07T07:35:33;31.15;;;5.80;;
70332;SDS011;57747;43.548;-5.704;2023-05-07T07:37:58;22.48;;;5.07;;
70332;SDS011;57747;43.548;-5.704;2023-05-07T07:40:26;24.05;;;5.93;;
70332;SDS011;57747;43.548;-5.704;2023-05-07T07:42:52;23.30;;;4.10;;
70332;SDS011;57747;43.548;-5.704;2023-05-07T07:45:21;22.92;;;4.63;;
70332;SDS011;57747;43.548;-5.704;2023-05-07T07:47:50;26.08;;;4.85;;
70332;SDS011;57747;43.548;-5.704;2023-05-07T07:50:16;22.23;;;5.07;;
70332;SDS011;57747;43.548;-5.704;2023-05-07T07:52:43;21.15;;;4.70;;
70332;SDS011;57747;43.548;-5.704;2023-05-07T07:55:09;32.47;;;4.30;;
70332;SDS011;57747;43.548;-5.704;2023-05-07T07:57:34;24.65;;;4.75;;
70332;SDS011;57747;43.548;-5.704;2023-05-07T08:00:02;25.70;;;5.00;;
70332;SDS011;57747;43.548;-5.704;2023-05-07T08:02:32;26.45;;;4.35;;
70332;SDS011;57747;43.548;-5.704;2023-05-07T08:04:57;19.85;;;4.03;;
70332;SDS011;57747;43.548;-5.704;2023-05-07T08:07:22;20.52;;;3.88;;
70332;SDS011;57747;43.548;-5.704;2023-05-07T08:09:50;24.70;;;3.92;;
70332;SDS011;57747;43.548;-5.704;2023-05-07T08:12:16;18.27;;;3.83;;
70332;SDS011;57747;43.548;-5.704;2023-05-07T08:14:42;21.50;;;3.83;;
70332;SDS011;57747;43.548;-5.704;2023-05-07T08:17:07;21.83;;;3.60;;
70332;SDS011;57747;43.548;-5.704;2023-05-07T08:19:34;20.77;;;3.67;;
70332;SDS011;57747;43.548;-5.704;2023-05-07T08:22:08;18.60;;;4.35;;
70332;SDS011;57747;43.548;-5.704;2023-05-07T08:24:34;22.55;;;4.35;;
70332;SDS011;57747;43.548;-5.704;2023-05-07T08:26:59;21.63;;;3.75;;
70332;SDS011;57747;43.548;-5.704;2023-05-07T08:29:27;16.65;;;4.03;;
70332;SDS011;57747;43.548;-5.704;2023-05-07T08:31:52;28.85;;;4.53;;
70332;SDS011;57747;43.548;-5.704;2023-05-07T08:34:21;18.98;;;4.07;;
70332;SDS011;57747;43.548;-5.704;2023-05-07T08:36:46;24.60;;;4.40;;
70332;SDS011;57747;43.548;-5.704;2023-05-07T08:39:14;29.85;;;4.75;;
70332;SDS011;57747;43.548;-5.704;2023-05-07T08:41:46;29.45;;;4.20;;
70332;SDS011;57747;43.548;-5.704;2023-05-07T08:44:15;26.35;;;3.50;;
70332;SDS011;57747;43.548;-5.704;2023-05-07T08:46:43;13.60;;;3.55;;
70332;SDS011;57747;43.548;-5.704;2023-05-07T08:49:11;17.38;;;3.58;;
70332;SDS011;57747;43.548;-5.704;2023-05-07T08:51:37;23.15;;;4.68;;
70332;SDS011;57747;43.548;-5.704;2023-05-07T08:54:02;26.58;;;4.55;;
70332;SDS011;57747;43.548;-5.704;2023-05-07T08:56:30;25.17;;;4.90;;
70332;SDS011;57747;43.548;-5.704;2023-05-07T08:58:55;24.88;;;4.65;;
70332;SDS011;57747;43.548;-5.704;2023-05-07T09:01:23;29.17;;;4.45;;
70332;SDS011;57747;43.548;-5.704;2023-05-07T09:03:49;17.42;;;3.83;;
70332;SDS011;57747;43.548;-5.704;2023-05-07T09:06:15;21.83;;;4.50;;
70332;SDS011;57747;43.548;-5.704;2023-05-07T09:08:40;17.52;;;4.25;;
70332;SDS011;57747;43.548;-5.704;2023-05-07T09:11:06;22.88;;;3.75;;
70332;SDS011;57747;43.548;-5.704;2023-05-07T09:13:54;28.27;;;4.55;;
70332;SDS011;57747;43.548;-5.704;2023-05-07T09:16:20;15.23;;;3.60;;
70332;SDS011;57747;43.548;-5.704;2023-05-07T09:18:45;17.73;;;3.40;;
70332;SDS011;57747;43.548;-5.704;2023-05-07T09:21:16;18.50;;;3.75;;
70332;SDS011;57747;43.548;-5.704;2023-05-07T09:23:41;12.85;;;2.92;;
70332;SDS011;57747;43.548;-5.704;2023-05-07T09:26:07;28.63;;;3.88;;
70332;SDS011;57747;43.548;-5.704;2023-05-07T09:28:39;12.65;;;2.72;;
70332;SDS011;57747;43.548;-5.704;2023-05-07T09:31:06;13.82;;;3.03;;
70332;SDS011;57747;43.548;-5.704;2023-05-07T09:33:31;16.65;;;2.67;;
70332;SDS011;57747;43.548;-5.704;2023-05-07T09:35:57;10.02;;;2.70;;
70332;SDS011;57747;43.548;-5.704;2023-05-07T09:38:25;16.02;;;2.90;;
70332;SDS011;57747;43.548;-5.704;2023-05-07T09:41:09;14.05;;;2.58;;
70332;SDS011;57747;43.548;-5.704;2023-05-07T09:43:37;7.43;;;2.47;;
70332;SDS011;57747;43.548;-5.704;2023-05-07T09:46:06;13.52;;;2.72;;
70332;SDS011;57747;43.548;-5.704;2023-05-07T09:48:35;22.45;;;3.90;;
70332;SDS011;57747;43.548;-5.704;2023-05-07T09:51:04;15.00;;;3.60;;
70332;SDS011;57747;43.548;-5.704;2023-05-07T09:53:33;16.98;;;2.20;;
70332;SDS011;57747;43.548;-5.704;2023-05-07T09:55:58;12.10;;;1.65;;
70332;SDS011;57747;43.548;-5.704;2023-05-07T09:58:24;15.98;;;2.83;;
70332;SDS011;57747;43.548;-5.704;2023-05-07T10:00:53;8.45;;;2.20;;
70332;SDS011;57747;43.548;-5.704;2023-05-07T10:03:23;9.23;;;2.35;;
70332;SDS011;57747;43.548;-5.704;2023-05-07T10:05:52;7.80;;;1.80;;
70332;SDS011;57747;43.548;-5.704;2023-05-07T10:08:18;13.25;;;2.08;;
70332;SDS011;57747;43.548;-5.704;2023-05-07T10:10:45;9.57;;;2.35;;
70332;SDS011;57747;43.548;-5.704;2023-05-07T10:13:10;8.63;;;2.15;;
70332;SDS011;57747;43.548;-5.704;2023-05-07T10:15:36;15.13;;;2.13;;
70332;SDS011;57747;43.548;-5.704;2023-05-07T10:18:02;8.30;;;1.98;;
70332;SDS011;57747;43.548;-5.704;2023-05-07T10:20:28;13.75;;;1.98;;
70332;SDS011;57747;43.548;-5.704;2023-05-07T10:22:53;9.50;;;1.80;;
70332;SDS011;57747;43.548;-5.704;2023-05-07T10:25:23;7.18;;;1.83;;
70332;SDS011;57747;43.548;-5.704;2023-05-07T10:27:50;10.43;;;1.90;;
70332;SDS011;57747;43.548;-5.704;2023-05-07T10:30:26;13.55;;;2.13;;
70332;SDS011;57747;43.548;-5.704;2023-05-07T10:32:59;18.45;;;2.17;;
70332;SDS011;57747;43.548;-5.704;2023-05-07T10:35:31;8.18;;;2.00;;
70332;SDS011;57747;43.548;-5.704;2023-05-07T10:37:57;10.50;;;2.47;;
70332;SDS011;57747;43.548;-5.704;2023-05-07T10:40:26;7.75;;;1.70;;
70332;SDS011;57747;43.548;-5.704;2023-05-07T10:43:01;13.73;;;2.33;;
70332;SDS011;57747;43.548;-5.704;2023-05-07T10:45:29;9.95;;;1.80;;
70332;SDS011;57747;43.548;-5.704;2023-05-07T10:48:08;14.38;;;2.00;;
70332;SDS011;57747;43.548;-5.704;2023-05-07T10:50:34;3.42;;;1.25;;
70332;SDS011;57747;43.548;-5.704;2023-05-07T10:55:40;7.95;;;1.50;;
70332;SDS011;57747;43.548;-5.704;2023-05-07T10:58:24;11.60;;;2.40;;
70332;SDS011;57747;43.548;-5.704;2023-05-07T11:00:55;6.78;;;1.83;;
70332;SDS011;57747;43.548;-5.704;2023-05-07T11:06:08;13.55;;;1.52;;
70332;SDS011;57747;43.548;-5.704;2023-05-07T11:11:17;7.22;;;2.10;;
70332;SDS011;57747;43.548;-5.704;2023-05-07T11:13:45;3.53;;;1.17;;
70332;SDS011;57747;43.548;-5.704;2023-05-07T11:16:20;16.42;;;2.10;;
70332;SDS011;57747;43.548;-5.704;2023-05-07T11:18:46;6.15;;;1.13;;
70332;SDS011;57747;43.548;-5.704;2023-05-07T11:21:12;5.55;;;1.17;;
70332;SDS011;57747;43.548;-5.704;2023-05-07T11:26:27;13.98;;;1.70;;
70332;SDS011;57747;43.548;-5.704;2023-05-07T11:28:53;12.13;;;1.58;;
70332;SDS011;57747;43.548;-5.704;2023-05-07T11:31:21;9.32;;;1.75;;
70332;SDS011;57747;43.548;-5.704;2023-05-07T11:33:48;13.80;;;1.77;;
70332;SDS011;57747;43.548;-5.704;2023-05-07T11:36:13;5.22;;;1.42;;
70332;SDS011;57747;43.548;-5.704;2023-05-07T11:38:41;9.88;;;2.15;;
70332;SDS011;57747;43.548;-5.704;2023-05-07T11:41:07;5.10;;;1.83;;
70332;SDS011;57747;43.548;-5.704;2023-05-07T11:43:33;6.10;;;1.60;;
70332;SDS011;57747;43.548;-5.704;2023-05-07T11:46:08;3.20;;;0.98;;
70332;SDS011;57747;43.548;-5.704;2023-05-07T11:48:33;10.02;;;1.42;;
70332;SDS011;57747;43.548;-5.704;2023-05-07T11:51:05;4.68;;;0.85;;
70332;SDS011;57747;43.548;-5.704;2023-05-07T11:53:40;5.90;;;1.50;;
70332;SDS011;57747;43.548;-5.704;2023-05-07T11:56:12;2.92;;;0.77;;
70332;SDS011;57747;43.548;-5.704;2023-05-07T11:58:39;3.95;;;1.33;;
70332;SDS011;57747;43.548;-5.704;2023-05-07T12:01:06;6.45;;;1.52;;
70332;SDS011;57747;43.548;-5.704;2023-05-07T12:03:32;7.63;;;1.27;;
70332;SDS011;57747;43.548;-5.704;2023-05-07T12:05:57;9.85;;;1.55;;
70332;SDS011;57747;43.548;-5.704;2023-05-07T12:08:27;6.10;;;1.05;;
70332;SDS011;57747;43.548;-5.704;2023-05-07T12:10:53;7.28;;;1.42;;
70332;SDS011;57747;43.548;-5.704;2023-05-07T12:13:23;11.57;;;1.25;;
70332;SDS011;57747;43.548;-5.704;2023-05-07T12:15:52;5.95;;;1.83;;
70332;SDS011;57747;43.548;-5.704;2023-05-07T12:18:18;7.38;;;1.50;;
70332;SDS011;57747;43.548;-5.704;2023-05-07T12:20:44;8.25;;;1.33;;
70332;SDS011;57747;43.548;-5.704;2023-05-07T12:23:10;7.10;;;0.98;;
70332;SDS011;57747;43.548;-5.704;2023-05-07T12:25:36;8.18;;;1.00;;
70332;SDS011;57747;43.548;-5.704;2023-05-07T12:28:02;6.47;;;1.92;;
70332;SDS011;57747;43.548;-5.704;2023-05-07T12:30:30;5.22;;;1.48;;
70332;SDS011;57747;43.548;-5.704;2023-05-07T12:32:55;4.30;;;0.85;;
70332;SDS011;57747;43.548;-5.704;2023-05-07T12:35:33;7.38;;;1.27;;
70332;SDS011;57747;43.548;-5.704;2023-05-07T12:38:07;3.35;;;1.02;;
70332;SDS011;57747;43.548;-5.704;2023-05-07T12:40:39;8.90;;;1.15;;
70332;SDS011;57747;43.548;-5.704;2023-05-07T12:43:08;7.20;;;1.52;;
70332;SDS011;57747;43.548;-5.704;2023-05-07T12:45:40;1.67;;;0.75;;
70332;SDS011;57747;43.548;-5.704;2023-05-07T12:48:09;7.18;;;1.60;;
70332;SDS011;57747;43.548;-5.704;2023-05-07T12:50:37;7.85;;;1.10;;
70332;SDS011;57747;43.548;-5.704;2023-05-07T12:53:03;6.13;;;1.38;;
70332;SDS011;57747;43.548;-5.704;2023-05-07T12:55:31;3.95;;;0.82;;
70332;SDS011;57747;43.548;-5.704;2023-05-07T12:57:56;4.78;;;0.70;;
70332;SDS011;57747;43.548;-5.704;2023-05-07T13:00:38;8.27;;;1.30;;
70332;SDS011;57747;43.548;-5.704;2023-05-07T13:03:04;2.55;;;0.93;;
70332;SDS011;57747;43.548;-5.704;2023-05-07T13:05:32;3.42;;;1.30;;
70332;SDS011;57747;43.548;-5.704;2023-05-07T13:08:00;3.85;;;0.90;;
70332;SDS011;57747;43.548;-5.704;2023-05-07T13:10:31;4.22;;;0.82;;
70332;SDS011;57747;43.548;-5.704;2023-05-07T13:12:57;7.28;;;1.35;;
70332;SDS011;57747;43.548;-5.704;2023-05-07T13:15:30;7.05;;;1.52;;
70332;SDS011;57747;43.548;-5.704;2023-05-07T13:18:16;7.13;;;1.35;;
70332;SDS011;57747;43.548;-5.704;2023-05-07T13:20:57;3.10;;;0.70;;
70332;SDS011;57747;43.548;-5.704;2023-05-07T13:23:31;2.33;;;1.02;;
70332;SDS011;57747;43.548;-5.704;2023-05-07T13:29:14;5.63;;;0.95;;
70332;SDS011;57747;43.548;-5.704;2023-05-07T13:31:40;5.65;;;1.30;;
70332;SDS011;57747;43.548;-5.704;2023-05-07T13:34:09;6.38;;;1.00;;
70332;SDS011;57747;43.548;-5.704;2023-05-07T13:36:35;5.32;;;0.90;;
70332;SDS011;57747;43.548;-5.704;2023-05-07T13:39:04;3.88;;;1.52;;
70332;SDS011;57747;43.548;-5.704;2023-05-07T13:44:21;1.95;;;0.68;;
70332;SDS011;57747;43.548;-5.704;2023-05-07T13:47:13;5.13;;;1.33;;
70332;SDS011;57747;43.548;-5.704;2023-05-07T13:49:58;1.92;;;0.60;;
70332;SDS011;57747;43.548;-5.704;2023-05-07T13:52:42;4.97;;;1.10;;
70332;SDS011;57747;43.548;-5.704;2023-05-07T13:55:19;5.72;;;1.10;;
70332;SDS011;57747;43.548;-5.704;2023-05-07T13:58:07;6.28;;;1.02;;
70332;SDS011;57747;43.548;-5.704;2023-05-07T14:00:33;12.05;;;1.13;;
70332;SDS011;57747;43.548;-5.704;2023-05-07T14:03:01;1.77;;;0.55;;
70332;SDS011;57747;43.548;-5.704;2023-05-07T14:08:41;3.67;;;0.93;;
70332;SDS011;57747;43.548;-5.704;2023-05-07T14:11:32;4.18;;;0.88;;
70332;SDS011;57747;43.548;-5.704;2023-05-07T14:16:33;3.55;;;0.70;;
70332;SDS011;57747;43.548;-5.704;2023-05-07T14:19:42;2.75;;;0.70;;
70332;SDS011;57747;43.548;-5.704;2023-05-07T14:22:13;4.15;;;0.60;;
70332;SDS011;57747;43.548;-5.704;2023-05-07T14:24:54;2.53;;;0.63;;
70332;SDS011;57747;43.548;-5.704;2023-05-07T14:27:43;3.67;;;1.00;;
70332;SDS011;57747;43.548;-5.704;2023-05-07T14:30:12;3.30;;;0.70;;
70332;SDS011;57747;43.548;-5.704;2023-05-07T14:32:56;5.10;;;1.40;;
70332;SDS011;57747;43.548;-5.704;2023-05-07T14:35:24;4.97;;;0.95;;
70332;SDS011;57747;43.548;-5.704;2023-05-07T14:37:52;1.60;;;0.60;;
70332;SDS011;57747;43.548;-5.704;2023-05-07T14:40:21;5.40;;;0.80;;
70332;SDS011;57747;43.548;-5.704;2023-05-07T14:49:26;3.63;;;1.02;;
70332;SDS011;57747;43.548;-5.704;2023-05-07T14:51:52;7.05;;;2.45;;
70332;SDS011;57747;43.548;-5.704;2023-05-07T14:54:17;4.75;;;1.52;;
70332;SDS011;57747;43.548;-5.704;2023-05-07T14:59:34;6.82;;;0.75;;
70332;SDS011;57747;43.548;-5.704;2023-05-07T15:14:40;4.15;;;0.75;;
70332;SDS011;57747;43.548;-5.704;2023-05-07T15:17:13;5.20;;;1.40;;
70332;SDS011;57747;43.548;-5.704;2023-05-07T15:19:58;9.80;;;1.63;;
70332;SDS011;57747;43.548;-5.704;2023-05-07T15:22:32;9.65;;;1.30;;
70332;SDS011;57747;43.548;-5.704;2023-05-07T15:25:15;5.63;;;1.30;;